»·PEaware :: N8665R KAJO-KVCV

N8665R :: KAJO-KVCV

FLIGHT INFORMATION

Flight Status: Arrived
Operator: Privately registered:
United States
More flights under this callsign
Pilot: Mitchell F. (26966)
Aircraft: PIPER PA-24 COMMANCHE
(PA24)
More flights by this aircraft type
Origin: KAJO Corona Mun
United States
Destination: KVCV Socal Logistics
United States
More flights between these airports :: More routes between these airports
Route: PDZ V442 APLES
File this flight plan on PilotEdge
Remarks: planned ODP leaving KAJO
Altitude:
(Current/Filed)
11,000ft
Speed:
(Current/Filed)
165kts
Departed: 09-Aug-20 02:55 PM
Arrived: 09-Aug-20 03:36 PM
Distance/Time
Traveled:
43nm/0:41
Distance/Time
To Go:
Arrived

Flight Plot

Page will automatically refresh every two minutes.


Map Options




Map Legend


Flown Route
Filed Route
Departure Airport
Arrival Airport
Navaid (VOR, NDB)
Fix

Horizontal Profiles

Position Reports

Time Latitude Longitude Heading Altitude Ground
Speed
09-Aug-20 14:46 33.896893 -117.599146 265 536ft 0kts
09-Aug-20 14:47 33.896893 -117.599149 265 536ft 0kts
09-Aug-20 14:48 33.896893 -117.599156 266 536ft 0kts
09-Aug-20 14:49 33.897003 -117.597377 131 536ft 9kts
09-Aug-20 14:50 33.896946 -117.596917 304 536ft 0kts
09-Aug-20 14:51 33.896947 -117.596919 304 536ft 0kts
09-Aug-20 14:52 33.897716 -117.597892 271 536ft 1kts
09-Aug-20 14:53 33.897715 -117.597910 265 536ft 0kts
09-Aug-20 14:54 33.897958 -117.615148 278 1029ft 97kts
09-Aug-20 14:55 33.910654 -117.600902 78 2577ft 105kts
09-Aug-20 14:56 33.917797 -117.564070 76 3714ft 114kts
09-Aug-20 14:57 33.920189 -117.525341 62 4496ft 127kts
09-Aug-20 14:59 33.944390 -117.496500 44 5401ft 123kts
09-Aug-20 15:00 33.956308 -117.513741 201 5939ft 129kts
09-Aug-20 15:01 33.926801 -117.525542 230 6887ft 119kts
09-Aug-20 15:02 33.934279 -117.551981 18 7631ft 131kts
09-Aug-20 15:03 33.959396 -117.524515 40 8638ft 120kts
09-Aug-20 15:04 33.950814 -117.503445 196 9766ft 111kts
09-Aug-20 15:05 33.925413 -117.522287 225 11057ft 111kts
09-Aug-20 15:06 33.940909 -117.535374 64 11408ft 165kts
09-Aug-20 15:07 33.967966 -117.489611 16 11134ft 180kts
09-Aug-20 15:08 34.015873 -117.475022 13 11170ft 173kts
09-Aug-20 15:09 34.058445 -117.449408 28 11294ft 175kts
09-Aug-20 15:10 34.102980 -117.423455 23 11270ft 178kts
09-Aug-20 15:11 34.148165 -117.396181 37 11104ft 182kts
09-Aug-20 15:12 34.188518 -117.362912 33 11114ft 169kts
09-Aug-20 15:13 34.227973 -117.331952 33 11136ft 175kts
09-Aug-20 15:14 34.268371 -117.300597 26 11134ft 167kts
09-Aug-20 15:15 34.312956 -117.284074 15 11099ft 169kts
09-Aug-20 15:15 34.350543 -117.270725 15 11041ft 165kts
09-Aug-20 15:17 34.402474 -117.242612 27 10118ft 175kts
09-Aug-20 15:17 34.438662 -117.220307 25 9981ft 174kts
09-Aug-20 15:18 34.481513 -117.193828 27 9640ft 180kts
09-Aug-20 15:20 34.522388 -117.168041 27 9421ft 173kts
09-Aug-20 15:20 34.560009 -117.149651 359 8325ft 178kts
09-Aug-20 15:21 34.607213 -117.146379 0 7305ft 167kts
09-Aug-20 15:22 34.649589 -117.150213 345 6597ft 138kts
09-Aug-20 15:23 34.685133 -117.169505 328 6750ft 152kts
09-Aug-20 15:24 34.718768 -117.197578 319 6739ft 141kts
09-Aug-20 15:25 34.747310 -117.228284 308 6729ft 130kts
09-Aug-20 15:26 34.769162 -117.263211 302 6729ft 132kts
09-Aug-20 15:27 34.786793 -117.302550 290 6446ft 135kts
09-Aug-20 15:28 34.793568 -117.345907 248 5899ft 134kts
09-Aug-20 15:29 34.764513 -117.367058 205 6133ft 120kts
09-Aug-20 15:30 34.730439 -117.384975 205 5885ft 125kts
09-Aug-20 15:31 34.695923 -117.385997 184 4895ft 129kts
09-Aug-20 15:32 34.659683 -117.386371 183 3844ft 131kts
09-Aug-20 15:33 34.625281 -117.386790 181 3137ft 124kts
09-Aug-20 15:34 34.601216 -117.386629 180 2854ft 48kts
09-Aug-20 15:35 34.594353 -117.385347 92 2854ft 3kts
09-Aug-20 15:36 34.592612 -117.382098 137 2854ft 21kts
09-Aug-20 15:37 34.588828 -117.377558 137 2854ft 14kts
09-Aug-20 15:38 34.587047 -117.375795 148 2854ft 0kts

Navigation Log

Ident Type
Flight plan parsing failed, navigation log unavailable